createdAt,value
2023-02-04T00:03:54.315Z,101852.31
2023-02-04T00:08:55.812Z,101870.72
2023-02-04T00:13:57.453Z,101868.63
2023-02-04T00:18:59.055Z,101870.16
2023-02-04T00:24:00.733Z,101863.53
2023-02-04T00:29:02.417Z,101876.03
2023-02-04T00:34:04.003Z,101882.16
2023-02-04T00:39:05.600Z,101879.00
2023-02-04T00:44:07.151Z,101896.69
2023-02-04T00:49:10.067Z,101904.50
2023-02-04T00:54:12.206Z,101912.66
2023-02-04T00:59:13.786Z,101916.13
2023-02-04T01:04:15.328Z,101918.91
2023-02-04T01:09:16.804Z,101902.00
2023-02-04T01:14:18.447Z,101912.50
2023-02-04T01:19:19.987Z,101923.66
2023-02-04T01:24:21.562Z,101941.19
2023-02-04T01:29:23.086Z,101942.78
2023-02-04T01:34:24.598Z,101952.84
2023-02-04T01:39:26.141Z,101964.06
2023-02-04T01:44:28.721Z,101962.00
2023-02-04T01:49:30.157Z,101968.44
2023-02-04T01:54:32.198Z,101986.53
2023-02-04T01:59:34.022Z,101984.63
2023-02-04T02:04:35.769Z,101989.22
2023-02-04T02:09:37.306Z,101987.00
2023-02-04T02:14:38.833Z,101990.38
2023-02-04T02:19:42.037Z,102008.91
2023-02-04T02:24:43.596Z,101994.44
2023-02-04T02:29:45.223Z,101991.84
2023-02-04T02:34:47.037Z,101994.63
2023-02-04T02:39:48.664Z,101993.66
2023-02-04T02:44:50.930Z,102014.41
2023-02-04T02:49:54.000Z,102021.50
2023-02-04T02:54:55.663Z,102022.44
2023-02-04T02:59:57.192Z,102014.41
2023-02-04T03:04:59.319Z,102012.38
2023-02-04T03:10:00.956Z,102011.47
2023-02-04T03:15:04.147Z,102009.75
2023-02-04T03:20:06.254Z,102019.00
2023-02-04T03:25:08.063Z,102025.47
2023-02-04T03:30:10.131Z,102034.19
2023-02-04T03:35:11.733Z,102038.44
2023-02-04T03:40:13.633Z,102040.94
2023-02-04T03:45:16.274Z,102048.47
2023-02-04T03:50:18.207Z,102062.59
2023-02-04T03:55:20.165Z,102071.97
2023-02-04T04:00:21.700Z,102077.38
2023-02-04T04:05:23.490Z,102084.09
2023-02-04T04:10:25.432Z,102073.00
2023-02-04T04:15:27.068Z,102083.59
2023-02-04T04:20:28.707Z,102083.53
2023-02-04T04:25:30.245Z,102088.63
2023-02-04T04:30:31.981Z,102086.09
2023-02-04T04:35:33.701Z,102101.00
2023-02-04T04:40:35.186Z,102096.69
2023-02-04T04:45:36.738Z,102095.91
2023-02-04T04:50:38.352Z,102104.63
2023-02-04T04:55:40.619Z,102105.75
2023-02-04T05:00:42.149Z,102111.31
2023-02-04T05:05:43.797Z,102093.09
2023-02-04T05:10:45.390Z,102090.94
2023-02-04T05:15:46.837Z,102098.66
2023-02-04T05:20:48.321Z,102103.41
2023-02-04T05:25:49.860Z,102103.41
2023-02-04T05:30:51.450Z,102112.31
2023-02-04T05:35:53.065Z,102118.81
2023-02-04T05:40:54.701Z,102144.81
2023-02-04T05:45:56.237Z,102143.81
2023-02-04T05:50:57.786Z,102147.56
2023-02-04T05:55:59.262Z,102151.75
2023-02-04T06:01:02.106Z,102147.78
2023-02-04T06:06:03.803Z,102150.91
2023-02-04T06:11:06.113Z,102162.47
2023-02-04T06:16:07.890Z,102168.53
2023-02-04T06:21:09.362Z,102169.09
2023-02-04T06:26:11.255Z,102188.31
2023-02-04T06:31:12.946Z,102207.97
2023-02-04T06:36:14.506Z,102213.50
2023-02-04T06:41:16.007Z,102214.28
2023-02-04T06:46:17.675Z,102219.66
2023-02-04T06:51:19.218Z,102216.16
2023-02-04T06:56:20.697Z,102222.63
2023-02-04T07:01:22.326Z,102228.84
2023-02-04T07:06:23.895Z,102233.69
2023-02-04T07:11:25.348Z,102234.34
2023-02-04T07:16:26.840Z,102250.81
2023-02-04T07:21:28.504Z,102254.66
2023-02-04T07:26:30.190Z,102258.97
2023-02-04T07:31:31.830Z,102266.06
2023-02-04T07:36:33.388Z,102269.50
2023-02-04T07:41:36.055Z,102285.75
2023-02-04T07:46:37.679Z,102282.91
2023-02-04T07:51:39.437Z,102289.13
2023-02-04T07:56:40.933Z,102289.13
2023-02-04T08:01:42.527Z,102295.38
2023-02-04T08:06:44.389Z,102309.06
2023-02-04T08:11:46.478Z,102309.06
2023-02-04T08:16:48.020Z,102310.59
2023-02-04T08:21:49.576Z,102317.22
2023-02-04T08:26:51.807Z,102314.47
2023-02-04T08:31:53.600Z,102318.63
2023-02-04T08:36:55.131Z,102313.22
2023-02-04T08:41:56.548Z,102320.88
2023-02-04T08:46:58.132Z,102324.28
2023-02-04T08:51:59.668Z,102329.41
2023-02-04T08:57:01.753Z,102337.03
2023-02-04T09:02:03.626Z,102339.81
2023-02-04T09:07:07.553Z,102346.44
2023-02-04T09:12:09.146Z,102355.47
2023-02-04T09:17:10.676Z,102351.97
2023-02-04T09:22:12.279Z,102353.94
2023-02-04T09:27:13.741Z,102360.34
2023-02-04T09:32:15.325Z,102372.13
2023-02-04T09:37:16.814Z,102360.81
2023-02-04T09:42:19.075Z,102371.91
2023-02-04T09:47:24.701Z,102375.63
2023-02-04T09:52:27.722Z,102384.78
2023-02-04T09:57:29.709Z,102391.91
2023-02-04T10:02:32.325Z,102406.38
2023-02-04T10:07:34.482Z,102401.94
2023-02-04T10:12:36.508Z,102409.16
2023-02-04T10:17:38.271Z,102404.88
2023-02-04T10:22:40.226Z,102411.22
2023-02-04T10:27:53.913Z,102404.88
2023-02-04T10:32:55.398Z,102409.94
2023-02-04T10:38:05.545Z,102410.84
2023-02-04T10:43:17.853Z,102406.63
2023-02-04T10:48:20.022Z,102409.81
2023-02-04T10:53:23.739Z,102402.25
2023-02-04T10:58:29.019Z,102404.97
2023-02-04T11:03:31.226Z,102403.75
2023-02-04T11:08:36.568Z,102402.00
2023-02-04T11:13:45.448Z,102407.84
2023-02-04T11:18:48.583Z,102404.78
2023-02-04T11:23:51.008Z,102411.44
2023-02-04T11:28:58.482Z,102415.66
2023-02-04T11:34:14.947Z,102412.09
2023-02-04T11:39:17.950Z,102406.88
2023-02-04T11:44:19.969Z,102411.06
2023-02-04T11:49:23.603Z,102401.66
2023-02-04T11:54:25.160Z,102402.31
2023-02-04T11:59:26.815Z,102407.13
2023-02-04T12:04:28.733Z,102399.56
2023-02-04T12:09:32.000Z,102393.69
2023-02-04T12:14:36.567Z,102393.56
2023-02-04T12:19:38.018Z,102385.50
2023-02-04T12:24:39.499Z,102391.63
2023-02-04T12:29:41.114Z,102397.78
2023-02-04T12:34:42.565Z,102403.50
2023-02-04T12:39:43.988Z,102395.53
2023-02-04T12:44:45.703Z,102391.94
2023-02-04T12:49:47.182Z,102399.78
2023-02-04T12:54:48.589Z,102400.59
2023-02-04T12:59:50.118Z,102400.16
2023-02-04T13:04:52.189Z,102404.59
2023-02-04T13:09:53.690Z,102400.25
2023-02-04T13:14:55.135Z,102388.22
2023-02-04T13:19:56.621Z,102383.78
2023-02-04T13:24:58.016Z,102386.81
2023-02-04T13:29:59.437Z,102385.50
2023-02-04T13:35:00.849Z,102376.75
2023-02-04T13:40:02.283Z,102389.97
2023-02-04T13:45:04.920Z,102384.09
2023-02-04T13:50:07.095Z,102378.97
2023-02-04T13:55:08.831Z,102387.44
2023-02-04T14:00:10.981Z,102391.94
2023-02-04T14:05:12.395Z,102387.75
2023-02-04T14:10:13.915Z,102390.44
2023-02-04T14:15:15.501Z,102382.09
2023-02-04T14:20:17.430Z,102396.84
2023-02-04T14:25:18.929Z,102401.22
2023-02-04T14:30:23.300Z,102392.28
2023-02-04T14:35:25.600Z,102389.06
2023-02-04T14:40:27.084Z,102391.56
2023-02-04T14:45:28.644Z,102398.81
2023-02-04T14:50:30.336Z,102396.25
2023-02-04T14:55:31.870Z,102405.31
2023-02-04T15:00:33.796Z,102405.31
2023-02-04T15:05:35.552Z,102408.63
2023-02-04T15:10:37.095Z,102408.13
2023-02-04T15:15:38.649Z,102426.00
2023-02-04T15:20:40.158Z,102415.94
2023-02-04T15:25:41.709Z,102418.06
2023-02-04T15:30:43.420Z,102434.47
2023-02-04T15:35:44.943Z,102435.59
2023-02-04T15:40:50.889Z,102434.59
2023-02-04T15:45:52.448Z,102427.16
2023-02-04T15:50:54.544Z,102443.88
2023-02-04T15:55:57.601Z,102442.50
2023-02-04T16:00:59.113Z,102441.19
2023-02-04T16:06:00.917Z,102449.84
2023-02-04T16:11:02.402Z,102448.69
2023-02-04T16:16:03.930Z,102458.72
2023-02-04T16:21:05.677Z,102455.00
2023-02-04T16:26:07.299Z,102457.19
2023-02-04T16:31:08.907Z,102462.50
2023-02-04T16:36:10.976Z,102454.84
2023-02-04T16:41:14.634Z,102468.28
2023-02-04T16:46:16.196Z,102467.03
2023-02-04T16:51:17.635Z,102475.81
2023-02-04T16:56:19.471Z,102475.25
2023-02-04T17:01:20.942Z,102483.94
2023-02-04T17:06:22.434Z,102487.72
2023-02-04T17:11:25.162Z,102491.19
2023-02-04T17:16:27.531Z,102494.19
2023-02-04T17:21:30.440Z,102493.75
2023-02-04T17:26:33.163Z,102503.91
2023-02-04T17:31:35.070Z,102510.56
2023-02-04T17:36:36.642Z,102508.22
2023-02-04T17:41:38.038Z,102519.63
2023-02-04T17:46:39.546Z,102524.66
2023-02-04T17:51:40.956Z,102530.03
2023-02-04T17:56:45.247Z,102526.78
2023-02-04T18:01:46.932Z,102525.44
2023-02-04T18:06:52.044Z,102532.50
2023-02-04T18:11:53.433Z,102538.13
2023-02-04T18:16:58.834Z,102536.63
2023-02-04T18:22:00.625Z,102538.34
2023-02-04T18:27:20.138Z,102534.63
2023-02-04T18:32:33.334Z,102539.22
2023-02-04T18:37:36.946Z,102549.06
2023-02-04T18:42:43.950Z,102554.94
2023-02-04T18:47:46.305Z,102555.09
2023-02-04T18:52:47.725Z,102558.38
2023-02-04T18:57:49.364Z,102564.13
2023-02-04T19:03:18.170Z,102559.16
2023-02-04T19:08:30.438Z,102556.75
2023-02-04T19:13:40.253Z,102551.38
2023-02-04T19:18:41.687Z,102557.84
2023-02-04T19:23:43.435Z,102549.38
2023-02-04T19:28:44.898Z,102555.53
2023-02-04T19:33:48.560Z,102549.47
2023-02-04T19:38:55.439Z,102556.19
2023-02-04T19:44:29.180Z,102558.75
2023-02-04T19:49:36.799Z,102577.44
2023-02-04T19:54:39.208Z,102564.09
2023-02-04T19:59:40.984Z,102574.19
2023-02-04T20:04:47.842Z,102575.13
2023-02-04T20:10:01.754Z,102577.94
2023-02-04T20:15:12.612Z,102585.47
2023-02-04T20:20:29.156Z,102587.31
2023-02-04T20:25:42.374Z,102589.31
2023-02-04T20:30:44.647Z,102592.06
2023-02-04T20:35:51.883Z,102592.84
2023-02-04T20:40:53.367Z,102599.28
2023-02-04T20:46:02.688Z,102593.16
2023-02-04T20:51:05.362Z,102595.94
2023-02-04T20:56:38.493Z,102595.53
2023-02-04T21:01:49.950Z,102595.94
2023-02-04T21:06:54.299Z,102606.44
2023-02-04T21:11:56.926Z,102589.56
2023-02-04T21:16:58.472Z,102589.53
2023-02-04T21:21:59.931Z,102590.78
2023-02-04T21:27:01.715Z,102590.28
2023-02-04T21:32:03.224Z,102596.00
2023-02-04T21:37:04.635Z,102589.47
2023-02-04T21:42:06.046Z,102597.31
2023-02-04T21:47:07.688Z,102595.63
2023-02-04T21:52:09.441Z,102595.94
2023-02-04T21:57:10.992Z,102591.22
2023-02-04T22:02:12.445Z,102601.31
2023-02-04T22:07:13.912Z,102601.16
2023-02-04T22:12:16.765Z,102599.72
2023-02-04T22:17:18.206Z,102595.63
2023-02-04T22:22:20.006Z,102592.41
2023-02-04T22:27:21.383Z,102600.25
2023-02-04T22:32:23.588Z,102595.34
2023-02-04T22:37:25.681Z,102592.88
2023-02-04T22:42:27.347Z,102595.16
2023-02-04T22:47:28.907Z,102586.09
2023-02-04T22:52:30.422Z,102585.88
2023-02-04T22:57:31.867Z,102598.13
2023-02-04T23:02:33.299Z,102586.97
2023-02-04T23:07:35.078Z,102591.34
2023-02-04T23:12:36.658Z,102606.25
2023-02-04T23:17:38.340Z,102602.38
2023-02-04T23:22:40.166Z,102602.50
2023-02-04T23:27:41.798Z,102582.09
2023-02-04T23:32:43.590Z,102580.38
2023-02-04T23:37:45.378Z,102574.50
2023-02-04T23:42:46.857Z,102577.78
2023-02-04T23:47:48.369Z,102571.03
2023-02-04T23:52:50.034Z,102571.38
2023-02-04T23:57:51.530Z,102580.88
